Time;durP1;ratioP1;P1;durP2;ratioP2;P2;SDS_P1;SDS_P2;PMS_P1;PMS_P2;Temp;Humidity;BMP_temperature;BMP_pressure;BME280_temperature;BME280_humidity;BME280_pressure;Samples;Min_cycle;Max_cycle;Signal;HPM_P1;HPM_P2
2023/02/02 00:01:48;;;;;;;;;7.00;5.00;;;;;11.79;93.45;102459.19;5084512;27;46114;-79
2023/02/02 00:04:22;;;;;;;;;5.00;5.00;;;;;11.68;93.88;102452.16;5094248;27;47121;-79
2023/02/02 00:06:47;;;;;;;;;7.00;5.00;;;;;11.60;94.43;102458.19;5096050;27;45529;-79
2023/02/02 00:09:15;;;;;;;;;7.67;5.67;;;;;11.58;94.75;102462.78;5093533;27;45323;-79
2023/02/02 00:11:42;;;;;;;;;9.00;6.00;;;;;11.52;94.88;102458.88;5099311;27;45286;-79
2023/02/02 00:14:07;;;;;;;;;7.33;6.00;;;;;11.46;95.67;102460.25;5097258;27;48228;-79
2023/02/02 00:16:39;;;;;;;;;3.33;3.33;;;;;11.44;95.68;102458.72;5098930;27;45316;-79
2023/02/02 00:19:16;;;;;;;;;11.67;6.67;;;;;11.38;95.80;102468.13;5099159;27;45224;-79
2023/02/02 00:21:43;;;;;;;;;6.00;6.00;;;;;11.36;96.61;102464.72;5098534;27;45487;-79
2023/02/02 00:24:11;;;;;;;;;9.00;7.00;;;;;11.30;96.45;102454.63;5099763;27;45439;-79
2023/02/02 00:26:38;;;;;;;;;7.67;6.67;;;;;11.32;96.33;102466.00;5100834;27;46037;-79
2023/02/02 00:29:05;;;;;;;;;7.33;6.33;;;;;11.33;96.76;102473.84;5102195;27;45335;-79
2023/02/02 00:31:30;;;;;;;;;6.00;5.00;;;;;11.21;97.55;102478.44;5100533;27;45463;-79
2023/02/02 00:33:55;;;;;;;;;5.67;5.67;;;;;11.19;98.11;102479.53;5102109;27;46011;-79
2023/02/02 00:36:21;;;;;;;;;8.00;7.00;;;;;11.24;97.57;102472.84;5102320;27;45271;-79
2023/02/02 00:38:48;;;;;;;;;6.67;6.67;;;;;11.26;97.43;102477.19;5101857;27;45297;-79
2023/02/02 00:41:14;;;;;;;;;6.00;5.00;;;;;11.27;97.73;102484.19;5102143;27;45511;-79
2023/02/02 00:43:39;;;;;;;;;7.67;6.67;;;;;11.24;97.36;102472.00;5100514;27;48553;-79
2023/02/02 00:46:05;;;;;;;;;7.67;6.33;;;;;11.33;97.41;102467.66;5101841;27;45358;-79
2023/02/02 00:48:30;;;;;;;;;11.00;8.33;;;;;11.40;97.07;102468.78;5100767;27;45499;-79
2023/02/02 00:50:56;;;;;;;;;10.33;5.67;;;;;11.21;97.89;102458.94;5102000;27;45350;-79
2023/02/02 00:53:22;;;;;;;;;8.67;5.00;;;;;11.30;97.57;102465.28;5101929;27;46119;-79
2023/02/02 00:55:47;;;;;;;;;7.00;6.33;;;;;11.25;97.84;102463.03;5101918;27;45359;-79
2023/02/02 00:58:12;;;;;;;;;4.33;4.00;;;;;11.22;97.68;102466.81;5101588;27;45408;-79
2023/02/02 01:00:38;;;;;;;;;6.67;5.33;;;;;11.20;98.84;102466.09;5101965;27;45403;-79
2023/02/02 01:03:05;;;;;;;;;7.33;5.00;;;;;11.09;99.35;102453.75;5101473;27;45357;-79
2023/02/02 01:05:31;;;;;;;;;7.67;6.00;;;;;11.18;98.82;102456.56;5102023;27;45246;-79
2023/02/02 01:07:57;;;;;;;;;7.00;5.33;;;;;11.06;99.14;102447.84;5102218;27;45388;-79
2023/02/02 01:10:22;;;;;;;;;5.00;5.00;;;;;11.18;99.04;102444.09;5100301;27;45902;-79
2023/02/02 01:12:48;;;;;;;;;9.33;8.33;;;;;11.24;98.46;102443.56;5100158;27;48513;-79
2023/02/02 01:15:13;;;;;;;;;10.33;6.00;;;;;11.07;98.38;102436.22;5101592;27;45231;-79
2023/02/02 01:17:39;;;;;;;;;9.00;8.33;;;;;11.06;99.24;102443.38;5099649;27;45379;-79
2023/02/02 01:20:06;;;;;;;;;6.67;5.67;;;;;11.07;99.55;102445.06;5101588;27;45514;-79
2023/02/02 01:22:32;;;;;;;;;5.00;5.00;;;;;11.11;98.49;102435.00;5100977;27;46323;-79
2023/02/02 01:24:58;;;;;;;;;9.00;6.00;;;;;11.08;98.48;102438.75;5096586;27;45329;-79
2023/02/02 01:27:24;;;;;;;;;9.33;5.33;;;;;11.04;98.61;102447.97;5099221;27;45330;-79
2023/02/02 01:29:49;;;;;;;;;3.33;3.33;;;;;10.99;98.68;102447.56;5101176;27;45539;-79
2023/02/02 01:32:14;;;;;;;;;5.00;4.00;;;;;10.93;99.26;102454.22;5099324;27;47155;-79
2023/02/02 01:34:40;;;;;;;;;6.00;5.33;;;;;10.83;99.76;102448.03;5100874;27;45367;-79
2023/02/02 01:37:07;;;;;;;;;7.00;5.33;;;;;10.76;99.90;102454.88;5100415;27;45244;-79
2023/02/02 01:39:32;;;;;;;;;9.67;5.67;;;;;10.71;100.00;102455.28;5096637;27;47128;-79
2023/02/02 01:41:58;;;;;;;;;7.00;6.33;;;;;10.70;100.00;102450.94;5098205;27;46097;-79
2023/02/02 01:44:51;;;;;;;;;6.67;6.67;;;;;10.62;100.00;102456.09;5101201;27;45316;-79
2023/02/02 01:47:19;;;;;;;;;6.00;5.33;;;;;10.57;100.00;102453.81;5101255;27;45176;-79
2023/02/02 01:49:45;;;;;;;;;7.33;6.33;;;;;10.53;100.00;102461.22;5097725;27;46543;-79
2023/02/02 01:52:13;;;;;;;;;4.67;3.00;;;;;10.48;100.00;102466.09;5101034;27;46940;-79
2023/02/02 01:54:44;;;;;;;;;7.67;7.00;;;;;10.46;100.00;102470.69;5101141;27;45323;-79
2023/02/02 01:57:22;;;;;;;;;8.00;6.00;;;;;10.48;100.00;102458.94;5100901;27;45203;-79
2023/02/02 01:59:49;;;;;;;;;8.00;5.67;;;;;10.48;100.00;102466.91;5100594;27;45344;-79
2023/02/02 02:02:15;;;;;;;;;6.00;6.00;;;;;10.39;100.00;102449.09;5099379;27;47127;-79
2023/02/02 02:04:41;;;;;;;;;5.00;5.00;;;;;10.36;100.00;102446.69;5100784;27;45215;-79
2023/02/02 02:07:07;;;;;;;;;6.00;5.00;;;;;10.43;100.00;102455.81;5100381;27;45315;-79
2023/02/02 02:09:33;;;;;;;;;7.00;6.00;;;;;10.28;100.00;102455.31;5100762;27;45571;-79
2023/02/02 02:11:58;;;;;;;;;8.00;6.00;;;;;10.09;100.00;102461.34;5100579;27;45488;-79
2023/02/02 02:17:41;;;;;;;;;5.33;5.33;;;;;9.91;100.00;102463.72;5100567;27;45527;-79
2023/02/02 02:26:33;;;;;;;;;6.67;6.67;;;;;9.92;100.00;102455.59;5099830;27;45429;-79
2023/02/02 02:29:13;;;;;;;;;11.67;10.67;;;;;10.03;100.00;102467.97;5100244;27;45446;-79
2023/02/02 02:32:00;;;;;;;;;9.00;9.00;;;;;10.03;100.00;102467.16;5100310;27;45353;-79
2023/02/02 02:34:41;;;;;;;;;11.00;8.67;;;;;9.98;100.00;102464.88;5088978;27;45349;-79
2023/02/02 02:37:21;;;;;;;;;6.67;5.33;;;;;9.77;100.00;102457.72;5100036;27;45424;-79
2023/02/02 02:39:57;;;;;;;;;10.00;7.33;;;;;9.71;100.00;102468.84;5098998;27;45410;-79
2023/02/02 02:42:26;;;;;;;;;9.33;7.33;;;;;9.69;100.00;102476.94;5098856;27;46335;-80
2023/02/02 02:44:54;;;;;;;;;10.67;10.33;;;;;9.64;100.00;102480.94;5099524;27;46394;-80
2023/02/02 02:47:21;;;;;;;;;9.00;8.33;;;;;9.57;100.00;102467.31;5097982;27;45332;-79
2023/02/02 02:49:47;;;;;;;;;5.67;5.67;;;;;9.53;100.00;102479.16;5099661;27;45262;-79
2023/02/02 02:52:13;;;;;;;;;8.67;8.33;;;;;9.42;100.00;102469.41;5100062;27;45344;-80
2023/02/02 02:54:48;;;;;;;;;11.33;10.00;;;;;9.38;100.00;102467.97;5099755;27;45376;-79
2023/02/02 02:57:25;;;;;;;;;6.00;5.33;;;;;9.28;100.00;102473.19;5099906;27;45330;-80
2023/02/02 03:00:15;;;;;;;;;12.67;6.33;;;;;9.32;100.00;102479.91;5099862;27;45337;-80
2023/02/02 03:03:15;;;;;;;;;9.67;9.67;;;;;9.22;100.00;102475.34;5099653;27;45473;-79
2023/02/02 03:05:51;;;;;;;;;8.67;6.00;;;;;9.13;100.00;102472.59;5099986;27;46637;-79
2023/02/02 03:08:31;;;;;;;;;6.33;6.00;;;;;9.01;100.00;102467.28;5099661;27;45483;-79
2023/02/02 03:11:01;;;;;;;;;7.33;7.00;;;;;9.07;100.00;102468.63;5100060;27;45520;-80
2023/02/02 03:13:27;;;;;;;;;8.33;6.00;;;;;9.28;100.00;102479.31;5098072;27;45669;-79
2023/02/02 03:15:53;;;;;;;;;7.67;6.00;;;;;9.30;100.00;102476.53;5098207;27;47251;-79
2023/02/02 03:18:23;;;;;;;;;6.00;5.00;;;;;9.28;100.00;102473.19;5099135;27;45370;-80
2023/02/02 03:20:48;;;;;;;;;10.33;8.33;;;;;9.27;100.00;102480.28;5098204;27;45323;-79
2023/02/02 03:23:13;;;;;;;;;11.00;9.00;;;;;8.95;100.00;102481.88;5098635;27;47132;-79
2023/02/02 03:25:40;;;;;;;;;7.67;7.67;;;;;8.83;100.00;102485.50;5098894;27;47418;-79
2023/02/02 03:28:06;;;;;;;;;5.33;5.00;;;;;8.86;100.00;102485.22;5100306;27;45334;-79
2023/02/02 03:30:32;;;;;;;;;9.33;8.00;;;;;8.75;100.00;102490.53;5088623;27;45640;-79
2023/02/02 03:32:58;;;;;;;;;9.00;6.00;;;;;8.78;100.00;102480.56;5092498;27;45937;-79
2023/02/02 03:35:24;;;;;;;;;6.33;6.33;;;;;8.64;100.00;102476.31;5094881;27;47182;-79
2023/02/02 03:37:50;;;;;;;;;8.67;5.00;;;;;8.70;100.00;102483.78;5089675;27;45440;-79
2023/02/02 03:40:16;;;;;;;;;8.67;7.00;;;;;8.64;100.00;102468.34;5099895;27;45237;-80
2023/02/02 03:42:41;;;;;;;;;7.67;6.00;;;;;8.76;100.00;102478.97;5099548;27;45356;-79
2023/02/02 03:45:07;;;;;;;;;8.33;8.00;;;;;8.75;100.00;102470.19;5081413;27;48715;-79
2023/02/02 03:47:32;;;;;;;;;5.33;4.67;;;;;8.83;100.00;102477.53;5099443;27;45227;-79
2023/02/02 03:49:58;;;;;;;;;8.00;5.50;;;;;8.66;100.00;102461.13;5098191;27;45266;-79
2023/02/02 03:52:24;;;;;;;;;7.33;6.67;;;;;8.75;100.00;102490.53;5098429;27;46194;-80
2023/02/02 03:54:50;;;;;;;;;6.00;5.00;;;;;8.69;100.00;102492.72;5094178;27;47604;-80
2023/02/02 03:57:15;;;;;;;;;9.00;8.00;;;;;8.71;100.00;102493.41;5090600;27;45295;-80
2023/02/02 03:59:40;;;;;;;;;8.33;6.00;;;;;8.70;100.00;102501.50;5101384;27;45413;-79
2023/02/02 04:02:06;;;;;;;;;10.00;8.00;;;;;8.64;100.00;102499.31;5102774;27;45320;-79
2023/02/02 04:04:31;;;;;;;;;6.33;6.33;;;;;8.63;100.00;102497.63;5096026;27;46113;-79
2023/02/02 04:06:57;;;;;;;;;10.00;8.00;;;;;8.67;100.00;102502.59;5109055;27;45333;-79
2023/02/02 04:09:23;;;;;;;;;6.33;6.33;;;;;8.67;100.00;102507.88;5103204;27;45325;-80
2023/02/02 04:11:48;;;;;;;;;8.00;6.33;;;;;8.68;100.00;102509.56;5102599;27;45518;-79
2023/02/02 04:14:14;;;;;;;;;7.67;7.67;;;;;8.80;100.00;102507.78;5102766;27;45468;-80
2023/02/02 04:16:39;;;;;;;;;11.00;9.67;;;;;8.83;100.00;102499.59;5102428;27;45373;-79
2023/02/02 04:19:04;;;;;;;;;10.33;9.00;;;;;8.92;100.00;102505.16;5098267;27;45378;-79
2023/02/02 04:21:30;;;;;;;;;5.67;5.33;;;;;8.87;100.00;102502.84;5099601;27;45502;-80
2023/02/02 04:23:55;;;;;;;;;6.67;5.00;;;;;8.99;100.00;102505.50;5102708;27;46242;-79
2023/02/02 04:26:24;;;;;;;;;7.33;4.67;;;;;9.03;100.00;102491.88;5102613;27;45315;-80
2023/02/02 04:28:49;;;;;;;;;10.33;8.67;;;;;9.03;100.00;102493.69;5102630;27;45231;-79
2023/02/02 04:31:15;;;;;;;;;7.67;6.00;;;;;9.20;100.00;102505.63;5087784;27;45444;-79
2023/02/02 04:33:40;;;;;;;;;9.33;7.33;;;;;9.27;100.00;102504.16;5097901;27;48622;-79
2023/02/02 04:36:06;;;;;;;;;5.33;5.00;;;;;9.34;100.00;102509.84;5099394;27;45326;-80
2023/02/02 04:38:31;;;;;;;;;8.00;8.00;;;;;9.36;100.00;102504.41;5102586;27;45399;-79
2023/02/02 04:40:57;;;;;;;;;9.00;8.67;;;;;9.39;100.00;102499.69;5100582;27;45374;-79
2023/02/02 04:43:22;;;;;;;;;11.67;9.33;;;;;9.40;100.00;102482.78;5100874;27;46220;-79
2023/02/02 04:45:53;;;;;;;;;7.67;6.67;;;;;9.47;100.00;102499.94;5101900;27;45317;-79
2023/02/02 04:48:18;;;;;;;;;6.67;6.33;;;;;9.52;100.00;102502.19;5102710;27;45237;-80
2023/02/02 04:50:43;;;;;;;;;8.33;6.67;;;;;9.51;100.00;102495.19;5102033;27;45257;-80
2023/02/02 04:53:09;;;;;;;;;9.33;9.33;;;;;9.52;100.00;102504.84;5102427;27;46459;-80
2023/02/02 04:55:37;;;;;;;;;8.00;7.67;;;;;9.58;100.00;102512.31;5102255;27;45257;-80
2023/02/02 04:58:04;;;;;;;;;7.33;7.33;;;;;9.54;100.00;102516.19;5102352;27;45305;-79
2023/02/02 05:00:29;;;;;;;;;9.33;6.67;;;;;9.53;100.00;102511.00;5100519;27;46476;-80
2023/02/02 05:02:55;;;;;;;;;8.00;5.33;;;;;9.56;100.00;102513.41;5101752;27;46167;-80
2023/02/02 05:05:20;;;;;;;;;6.33;5.33;;;;;9.60;100.00;102517.50;5101924;27;45344;-79
2023/02/02 05:07:45;;;;;;;;;7.00;6.00;;;;;9.67;100.00;102518.69;5110141;27;45866;-80
2023/02/02 05:10:11;;;;;;;;;10.00;8.33;;;;;9.59;100.00;102515.81;5101536;27;45262;-80
2023/02/02 05:12:36;;;;;;;;;6.00;6.00;;;;;9.57;100.00;102512.44;5101892;27;45313;-79
2023/02/02 05:15:04;;;;;;;;;6.33;6.33;;;;;9.63;100.00;102521.72;5088835;27;45193;-79
2023/02/02 05:17:30;;;;;;;;;12.00;6.67;;;;;9.59;100.00;102515.81;5101905;27;45314;-80
2023/02/02 05:19:55;;;;;;;;;5.67;5.67;;;;;9.60;100.00;102518.34;5101516;27;45524;-80
2023/02/02 05:22:20;;;;;;;;;7.33;6.00;;;;;9.59;100.00;102516.69;5101656;27;46539;-80
2023/02/02 05:24:46;;;;;;;;;7.00;7.00;;;;;9.74;100.00;102529.66;5101522;27;45395;-80
2023/02/02 05:27:11;;;;;;;;;9.00;5.00;;;;;9.75;100.00;102528.69;5100491;27;45279;-80
2023/02/02 05:29:36;;;;;;;;;5.67;5.00;;;;;9.80;100.00;102542.44;5101489;27;45481;-79
2023/02/02 05:32:02;;;;;;;;;9.00;7.33;;;;;9.82;100.00;102531.69;5099480;27;48411;-80
2023/02/02 05:34:27;;;;;;;;;6.33;6.00;;;;;9.88;100.00;102538.31;5101102;27;45279;-80
2023/02/02 05:36:53;;;;;;;;;7.00;7.00;;;;;9.89;100.00;102535.53;5101858;27;45395;-80
2023/02/02 05:39:18;;;;;;;;;10.00;7.33;;;;;9.88;100.00;102533.88;5101293;27;45390;-80
2023/02/02 05:41:43;;;;;;;;;8.33;5.00;;;;;9.93;100.00;102536.13;5101658;27;46077;-80
2023/02/02 05:44:11;;;;;;;;;5.33;5.33;;;;;9.85;100.00;102523.50;5101066;27;45400;-80
2023/02/02 05:46:37;;;;;;;;;6.00;4.67;;;;;10.00;100.00;102534.66;5099988;27;45365;-80
2023/02/02 05:49:03;;;;;;;;;6.33;6.33;;;;;10.00;100.00;102532.00;5099618;27;46192;-80
2023/02/02 05:51:43;;;;;;;;;7.00;6.33;;;;;10.06;100.00;102535.97;5101415;27;45546;-80
2023/02/02 05:54:08;;;;;;;;;5.67;5.67;;;;;10.10;100.00;102532.09;5101031;27;45574;-80
2023/02/02 05:56:34;;;;;;;;;6.33;5.67;;;;;10.10;100.00;102532.09;5101395;27;45391;-80
2023/02/02 05:59:00;;;;;;;;;11.67;11.00;;;;;10.15;100.00;102537.84;5096282;27;45999;-80
2023/02/02 06:01:25;;;;;;;;;6.00;6.00;;;;;10.10;100.00;102538.25;5092124;27;46280;-80
2023/02/02 06:03:50;;;;;;;;;6.67;6.67;;;;;10.19;100.00;102552.59;5100993;27;45468;-79
2023/02/02 06:06:16;;;;;;;;;7.00;6.67;;;;;10.21;100.00;102553.28;5106224;27;45211;-79
2023/02/02 06:08:41;;;;;;;;;9.00;7.00;;;;;10.23;100.00;102550.50;5102587;27;45526;-80
2023/02/02 06:11:11;;;;;;;;;6.33;6.00;;;;;10.22;100.00;102552.34;5099685;27;47066;-80
2023/02/02 06:13:37;;;;;;;;;6.67;6.67;;;;;10.25;100.00;102561.00;5100507;27;45486;-79
2023/02/02 06:16:03;;;;;;;;;6.33;6.33;;;;;10.21;100.00;102545.31;5100610;27;45436;-80
2023/02/02 06:18:28;;;;;;;;;11.00;5.33;;;;;10.22;100.00;102548.81;5099478;27;45671;-80
2023/02/02 06:20:57;;;;;;;;;9.00;7.00;;;;;10.23;100.00;102551.34;5096950;27;46185;-78
2023/02/02 06:23:23;;;;;;;;;7.67;7.00;;;;;10.20;100.00;102554.25;5089613;27;45366;-80
2023/02/02 06:25:48;;;;;;;;;8.33;7.00;;;;;10.20;100.00;102554.25;5100655;27;45352;-80
2023/02/02 06:28:14;;;;;;;;;9.00;8.67;;;;;10.18;100.00;102548.22;5097531;27;45269;-79
2023/02/02 06:30:39;;;;;;;;;9.67;7.00;;;;;10.18;100.00;102561.50;5091702;27;45276;-80
2023/02/02 06:33:06;;;;;;;;;6.00;6.00;;;;;10.24;100.00;102565.50;5095985;27;46015;-80
2023/02/02 06:35:31;;;;;;;;;11.00;7.00;;;;;10.26;100.00;102562.72;5092775;27;45413;-80
2023/02/02 06:37:57;;;;;;;;;7.00;7.00;;;;;10.28;100.00;102569.59;5100129;27;45383;-79
2023/02/02 06:40:23;;;;;;;;;10.00;6.33;;;;;10.24;100.00;102570.81;5100414;27;46012;-79
2023/02/02 06:42:57;;;;;;;;;12.00;9.67;;;;;10.30;100.00;102572.13;5095447;27;45433;-81
2023/02/02 06:45:23;;;;;;;;;10.67;10.67;;;;;10.19;100.00;102562.34;5093569;27;45371;-81
2023/02/02 06:47:49;;;;;;;;;11.67;9.67;;;;;10.21;100.00;102563.91;5099815;27;45363;-81
2023/02/02 06:50:15;;;;;;;;;13.00;10.00;;;;;10.27;100.00;102573.22;5100235;27;45377;-80
2023/02/02 06:52:49;;;;;;;;;13.33;9.67;;;;;10.31;100.00;102581.75;5095639;27;45690;-81
2023/02/02 06:55:14;;;;;;;;;8.33;8.33;;;;;10.26;100.00;102570.69;5085798;27;45395;-81
2023/02/02 06:57:40;;;;;;;;;13.33;12.33;;;;;10.27;100.00;102570.56;5081191;27;45335;-80
2023/02/02 07:00:06;;;;;;;;;15.33;14.00;;;;;10.29;100.00;102575.72;5080926;27;45259;-80
2023/02/02 07:02:31;;;;;;;;;14.00;11.00;;;;;10.26;100.00;102571.50;5085649;27;45586;-79
2023/02/02 07:04:56;;;;;;;;;13.33;11.00;;;;;10.27;100.00;102586.50;5099422;27;45421;-80
2023/02/02 07:07:22;;;;;;;;;11.00;11.00;;;;;10.26;100.00;102579.47;5088620;27;45286;-80
2023/02/02 07:09:47;;;;;;;;;14.00;8.67;;;;;10.25;100.00;102582.25;5095928;27;45289;-80
2023/02/02 07:12:12;;;;;;;;;9.67;7.00;;;;;10.22;100.00;102584.22;5100104;27;45308;-80
2023/02/02 07:14:37;;;;;;;;;14.00;11.33;;;;;10.25;100.00;102596.41;5098301;27;45181;-79
2023/02/02 07:17:03;;;;;;;;;13.00;13.00;;;;;10.44;100.00;102587.75;5099958;27;45214;-81
2023/02/02 07:19:28;;;;;;;;;12.00;12.00;;;;;10.56;100.00;102577.06;5097857;27;48291;-80
2023/02/02 07:21:54;;;;;;;;;12.33;11.33;;;;;10.62;100.00;102584.53;5098357;27;45565;-79
2023/02/02 07:24:19;;;;;;;;;11.67;10.33;;;;;10.27;100.00;102594.47;5097974;27;45892;-79
2023/02/02 07:26:44;;;;;;;;;14.00;12.67;;;;;10.30;100.00;102590.72;5094661;27;45540;-80
2023/02/02 07:29:13;;;;;;;;;13.67;12.67;;;;;10.22;100.00;102584.22;5099531;27;46172;-80
2023/02/02 07:31:39;;;;;;;;;14.67;11.00;;;;;10.27;100.00;102588.31;5099295;27;45325;-81
2023/02/02 07:34:05;;;;;;;;;12.33;12.33;;;;;10.35;100.00;102591.16;5100801;27;45400;-82
2023/02/02 07:36:30;;;;;;;;;18.00;15.33;;;;;10.28;100.00;102577.56;5103164;27;45454;-82
2023/02/02 07:39:02;;;;;;;;;14.00;11.00;;;;;10.35;100.00;102583.19;5103412;27;46179;-85
2023/02/02 07:41:28;;;;;;;;;13.67;13.33;;;;;10.35;100.00;102589.34;5103335;27;45256;-84
2023/02/02 07:43:53;;;;;;;;;23.67;22.67;;;;;10.42;100.00;102586.19;5102367;27;45478;-83
2023/02/02 07:46:19;;;;;;;;;26.33;26.33;;;;;10.35;100.00;102581.38;5103083;27;45361;-84
2023/02/02 07:48:45;;;;;;;;;36.25;33.75;;;;;10.40;100.00;102583.66;5102738;27;46078;-85
2023/02/02 07:51:13;;;;;;;;;32.33;30.67;;;;;10.41;100.00;102576.50;5102898;27;45337;-85
2023/02/02 07:53:42;;;;;;;;;69.25;56.00;;;;;10.47;100.00;102594.66;5103147;27;45223;-84
2023/02/02 07:56:15;;;;;;;;;64.50;50.25;;;;;10.48;100.00;102597.19;5103174;27;45372;-85
2023/02/02 07:58:42;;;;;;;;;57.00;47.50;;;;;10.54;100.00;102597.66;5102616;27;46275;-84
2023/02/02 08:01:09;;;;;;;;;60.75;49.00;;;;;10.57;100.00;102608.03;5102956;27;45537;-84
2023/02/02 08:03:37;;;;;;;;;47.50;39.75;;;;;10.59;100.00;102611.38;5101802;27;45357;-83
2023/02/02 08:06:18;;;;;;;;;44.50;38.00;;;;;10.60;100.00;102600.63;5099835;27;46211;-83
2023/02/02 08:08:44;;;;;;;;;20.33;20.00;;;;;10.70;100.00;102615.81;5090193;27;46767;-84
2023/02/02 08:11:11;;;;;;;;;20.67;18.67;;;;;10.69;100.00;102600.84;5103005;27;45274;-84
2023/02/02 08:13:37;;;;;;;;;17.67;14.67;;;;;10.72;100.00;102606.72;5103915;27;45320;-84
2023/02/02 08:16:04;;;;;;;;;15.33;15.33;;;;;10.80;100.00;102613.22;5097001;27;45463;-83
2023/02/02 08:18:29;;;;;;;;;15.00;14.67;;;;;10.77;100.00;102611.66;5097442;27;46376;-85
2023/02/02 08:20:59;;;;;;;;;17.67;15.00;;;;;10.84;100.00;102625.31;5101104;27;45367;-85
2023/02/02 08:23:25;;;;;;;;;15.00;13.00;;;;;10.81;100.00;102612.25;5102513;27;46470;-85
2023/02/02 08:25:52;;;;;;;;;19.33;17.00;;;;;10.86;100.00;102623.34;5102669;27;45684;-85
2023/02/02 08:28:17;;;;;;;;;14.33;13.67;;;;;10.83;100.00;102603.16;5086983;27;47470;-85
2023/02/02 08:30:43;;;;;;;;;16.33;16.33;;;;;10.92;100.00;102622.81;5101357;27;45594;-85
2023/02/02 08:33:09;;;;;;;;;15.33;15.00;;;;;10.87;100.00;102609.09;5102453;27;45329;-86
2023/02/02 08:35:40;;;;;;;;;17.33;16.67;;;;;10.94;100.00;102623.53;5102855;27;45292;-85
2023/02/02 08:38:06;;;;;;;;;14.00;11.33;;;;;10.95;100.00;102619.03;5100990;27;47470;-85
2023/02/02 08:40:31;;;;;;;;;13.33;10.67;;;;;10.99;100.00;102625.81;5102587;27;45248;-85
2023/02/02 08:42:57;;;;;;;;;10.00;8.67;;;;;11.08;100.00;102632.16;5100800;27;45348;-85
2023/02/02 08:45:22;;;;;;;;;13.33;11.33;;;;;11.13;100.00;102643.25;5100442;27;47125;-85
2023/02/02 08:47:47;;;;;;;;;19.00;14.00;;;;;11.16;100.00;102644.81;5089328;27;45471;-83
2023/02/02 08:50:13;;;;;;;;;14.67;14.00;;;;;11.18;100.00;102646.38;5103397;27;45346;-83
2023/02/02 08:52:38;;;;;;;;;14.00;12.67;;;;;11.23;100.00;102636.16;5106585;27;45607;-83
2023/02/02 08:55:04;;;;;;;;;10.33;9.67;;;;;11.26;100.00;102639.53;5088916;27;45394;-82
2023/02/02 08:57:31;;;;;;;;;12.67;10.00;;;;;11.24;100.00;102631.69;5098396;27;46712;-84
2023/02/02 08:59:57;;;;;;;;;12.33;12.33;;;;;11.21;100.00;102624.81;5091192;27;45346;-83
2023/02/02 09:02:22;;;;;;;;;9.33;9.33;;;;;11.20;100.00;102638.25;5097047;27;45494;-83
2023/02/02 09:04:48;;;;;;;;;8.33;8.33;;;;;11.19;100.00;102634.75;5084423;27;46586;-83
2023/02/02 09:07:13;;;;;;;;;5.67;4.67;;;;;11.15;100.00;102641.31;5105658;27;45383;-83
2023/02/02 09:09:38;;;;;;;;;8.33;8.33;;;;;11.17;100.00;102639.38;5103931;27;45373;-84
2023/02/02 09:12:04;;;;;;;;;12.33;10.67;;;;;11.22;100.00;102653.13;5100633;27;45452;-83
2023/02/02 09:14:29;;;;;;;;;9.33;8.67;;;;;11.23;100.00;102657.44;5103104;27;45358;-84
2023/02/02 09:16:54;;;;;;;;;10.67;10.67;;;;;11.23;100.00;102652.13;5101785;27;45822;-83
2023/02/02 09:19:20;;;;;;;;;12.33;12.00;;;;;11.21;100.00;102659.41;5100581;27;45352;-85
2023/02/02 09:21:45;;;;;;;;;14.67;13.67;;;;;11.20;100.00;102657.72;5100694;27;45247;-85
2023/02/02 09:24:12;;;;;;;;;15.67;10.67;;;;;11.17;100.00;102663.31;5100538;27;47114;-84
2023/02/02 09:26:39;;;;;;;;;8.00;8.00;;;;;11.19;100.00;102661.34;5101918;27;45262;-84
2023/02/02 09:29:07;;;;;;;;;10.67;9.33;;;;;11.20;100.00;102668.34;5087803;27;45657;-83
2023/02/02 09:31:35;;;;;;;;;13.00;10.67;;;;;11.31;100.00;102694.06;5079777;27;45530;-83
2023/02/02 09:34:05;;;;;;;;;16.00;15.67;;;;;11.34;100.00;102684.97;5097489;27;45483;-84
2023/02/02 09:36:32;;;;;;;;;13.00;12.00;;;;;11.40;100.00;102687.09;5092768;27;45553;-85
2023/02/02 09:38:57;;;;;;;;;7.33;7.33;;;;;11.47;100.00;102698.91;5100795;27;45436;-86
2023/02/02 09:41:38;;;;;;;;;9.33;9.33;;;;;11.54;100.00;102691.25;5095175;27;45560;-86
2023/02/02 09:44:34;;;;;;;;;14.00;10.00;;;;;11.62;100.00;102696.75;5103717;27;45902;-84
2023/02/02 09:47:18;;;;;;;;;9.00;9.00;;;;;11.66;100.00;102696.47;5101350;27;46208;-84
2023/02/02 09:49:48;;;;;;;;;13.33;13.33;;;;;11.69;100.00;102699.75;5101835;27;45758;-84
2023/02/02 09:52:24;;;;;;;;;11.33;10.00;;;;;11.72;100.00;102691.47;5097612;27;45388;-85
2023/02/02 09:54:55;;;;;;;;;14.67;13.33;;;;;11.73;100.00;102698.47;5097753;27;46121;-85
2023/02/02 09:57:26;;;;;;;;;14.67;13.33;;;;;11.83;100.00;102700.34;5100081;27;46387;-85
2023/02/02 09:59:53;;;;;;;;;12.67;9.33;;;;;11.86;100.00;102692.91;5101959;27;45529;-84
2023/02/02 10:02:51;;;;;;;;;14.00;10.33;;;;;11.90;100.00;102689.97;5108219;27;45301;-84
2023/02/02 10:05:23;;;;;;;;;10.00;9.33;;;;;11.92;100.00;102680.91;5094759;27;45424;-85
2023/02/02 10:07:54;;;;;;;;;10.00;8.67;;;;;11.96;100.00;102679.63;5092695;27;48625;-85
2023/02/02 10:10:32;;;;;;;;;14.00;10.67;;;;;12.03;100.00;102689.75;5092109;27;45995;-83
2023/02/02 10:13:08;;;;;;;;;12.33;10.00;;;;;12.10;100.00;102685.59;5094200;27;45249;-83
2023/02/02 10:16:04;;;;;;;;;12.67;10.67;;;;;12.20;100.00;102693.59;5085774;27;45541;-85
2023/02/02 10:18:38;;;;;;;;;7.67;7.67;;;;;12.24;100.00;102689.69;5096527;27;45342;-84
2023/02/02 10:21:14;;;;;;;;;9.33;8.00;;;;;12.28;100.00;102696.44;5101281;27;45235;-83
2023/02/02 10:23:43;;;;;;;;;12.00;10.00;;;;;12.29;100.00;102690.13;5102439;27;45283;-84
2023/02/02 10:26:37;;;;;;;;;10.00;9.00;;;;;12.34;100.00;102697.72;5102116;27;46296;-83
2023/02/02 10:29:20;;;;;;;;;9.67;8.67;;;;;12.41;100.00;102703.31;5100657;27;46391;-84
2023/02/02 10:32:05;;;;;;;;;10.33;6.33;;;;;12.46;100.00;102704.63;5100812;27;45451;-82
2023/02/02 10:34:54;;;;;;;;;9.33;9.00;;;;;12.53;100.00;102707.56;5096319;27;45293;-82
2023/02/02 10:37:25;;;;;;;;;6.67;4.67;;;;;12.57;100.00;102713.47;5098131;27;46529;-83
2023/02/02 10:40:13;;;;;;;;;7.00;6.33;;;;;12.65;100.00;102715.41;5095328;27;47810;-83
2023/02/02 10:46:04;;;;;;;;;9.00;8.67;;;;;12.75;100.00;102724.25;5090384;27;45369;-82
2023/02/02 10:48:37;;;;;;;;;7.33;7.33;;;;;12.72;100.00;102714.72;5085730;27;46988;-84
2023/02/02 10:51:11;;;;;;;;;10.33;8.00;;;;;12.74;100.00;102718.09;5099855;27;45419;-83
2023/02/02 10:53:37;;;;;;;;;8.67;8.67;;;;;12.83;100.00;102713.75;5097898;27;45355;-84
2023/02/02 10:56:05;;;;;;;;;6.67;6.00;;;;;12.83;100.00;102710.22;5095888;27;45380;-83
2023/02/02 10:58:50;;;;;;;;;9.33;6.67;;;;;12.92;99.44;102717.38;5083129;27;45349;-82
2023/02/02 11:01:16;;;;;;;;;12.00;9.67;;;;;12.97;98.41;102717.81;5104066;27;45596;-83
2023/02/02 11:03:42;;;;;;;;;8.33;7.67;;;;;12.95;99.49;102711.78;5098451;27;45348;-83
2023/02/02 11:08:59;;;;;;;;;10.00;8.50;;;;;13.16;98.25;102704.56;5088461;27;45712;-79
2023/02/02 11:11:31;;;;;;;;;8.67;8.67;;;;;13.21;98.92;102711.19;5090765;27;45447;-83
2023/02/02 11:14:06;;;;;;;;;10.00;9.00;;;;;13.41;98.87;102704.94;5094891;27;45341;-84
2023/02/02 11:16:39;;;;;;;;;9.67;9.00;;;;;13.28;98.57;102697.25;5091914;27;45535;-85
2023/02/02 11:19:17;;;;;;;;;9.67;9.33;;;;;13.37;98.38;102707.91;5099880;27;45354;-83
2023/02/02 11:21:47;;;;;;;;;11.67;11.67;;;;;13.42;97.67;102704.81;5098975;27;45442;-84
2023/02/02 11:24:19;;;;;;;;;9.67;9.00;;;;;13.45;96.99;102706.34;5092059;27;45274;-82
2023/02/02 11:26:48;;;;;;;;;9.67;8.00;;;;;13.45;96.89;102701.84;5095909;27;45870;-81
2023/02/02 11:29:22;;;;;;;;;13.00;8.67;;;;;13.37;95.94;102678.53;5097675;27;46812;-81
2023/02/02 11:31:47;;;;;;;;;10.00;9.00;;;;;13.41;95.92;102691.59;5099812;27;45582;-81
2023/02/02 11:34:22;;;;;;;;;15.33;9.67;;;;;13.44;94.85;102686.78;5099651;27;45265;-82
2023/02/02 11:37:01;;;;;;;;;11.33;11.33;;;;;13.47;95.36;102685.69;5101913;27;45728;-82
2023/02/02 11:39:26;;;;;;;;;8.00;8.00;;;;;13.52;95.10;102674.59;5103480;27;45455;-83